createdAt,value
2022-11-04T00:02:06.062Z,10.70
2022-11-04T00:04:32.731Z,10.70
2022-11-04T00:06:59.365Z,10.70
2022-11-04T00:09:29.118Z,10.70
2022-11-04T00:12:15.520Z,10.70
2022-11-04T00:14:42.606Z,10.60
2022-11-04T00:17:24.217Z,10.60
2022-11-04T00:20:12.356Z,10.60
2022-11-04T00:23:00.616Z,10.60
2022-11-04T00:25:46.062Z,10.70
2022-11-04T00:28:38.465Z,10.60
2022-11-04T00:31:29.358Z,10.70
2022-11-04T00:33:58.528Z,10.60
2022-11-04T00:36:26.136Z,10.70
2022-11-04T00:38:53.369Z,10.70
2022-11-04T00:41:26.239Z,10.70
2022-11-04T00:43:59.947Z,10.70
2022-11-04T00:46:28.816Z,10.70
2022-11-04T00:48:55.582Z,10.70
2022-11-04T00:51:22.670Z,10.70
2022-11-04T00:53:49.993Z,10.70
2022-11-04T00:56:16.974Z,10.70
2022-11-04T00:58:43.732Z,10.70
2022-11-04T01:01:13.640Z,10.70
2022-11-04T01:03:40.418Z,10.70
2022-11-04T01:06:07.220Z,10.80
2022-11-04T01:08:34.524Z,10.70
2022-11-04T01:11:05.075Z,10.80
2022-11-04T01:13:32.325Z,10.70
2022-11-04T01:16:05.239Z,10.70
2022-11-04T01:18:32.338Z,10.70
2022-11-04T01:21:03.945Z,10.70
2022-11-04T01:23:30.829Z,10.60
2022-11-04T01:25:57.635Z,10.60
2022-11-04T01:28:24.225Z,10.60
2022-11-04T01:30:50.822Z,10.60
2022-11-04T01:33:17.625Z,10.50
2022-11-04T01:35:44.170Z,10.60
2022-11-04T01:38:11.237Z,10.50
2022-11-04T01:40:40.256Z,10.50
2022-11-04T01:43:18.198Z,10.50
2022-11-04T01:45:50.823Z,10.50
2022-11-04T01:48:31.113Z,10.50
2022-11-04T01:50:59.376Z,10.40
2022-11-04T01:53:33.678Z,10.40
2022-11-04T01:56:11.744Z,10.50
2022-11-04T01:58:51.162Z,10.50
2022-11-04T02:01:18.468Z,10.50
2022-11-04T02:03:52.323Z,10.60
2022-11-04T02:06:20.997Z,10.60
2022-11-04T02:08:49.297Z,10.60
2022-11-04T02:11:36.009Z,10.60
2022-11-04T02:14:02.798Z,10.60
2022-11-04T02:16:40.345Z,10.50
2022-11-04T02:19:53.223Z,10.40
2022-11-04T02:22:57.646Z,10.40
2022-11-04T02:25:57.753Z,10.30
2022-11-04T02:28:45.861Z,10.20
2022-11-04T02:31:48.680Z,10.20
2022-11-04T02:34:36.970Z,10.10
2022-11-04T02:40:51.267Z,10.10
2022-11-04T02:43:30.239Z,10.00
2022-11-04T02:46:08.861Z,10.00
2022-11-04T02:49:03.173Z,10.00
2022-11-04T02:51:36.607Z,9.90
2022-11-04T02:54:14.162Z,9.90
2022-11-04T02:56:49.981Z,9.80
2022-11-04T02:59:33.786Z,9.80
2022-11-04T03:02:05.859Z,9.70
2022-11-04T03:04:38.281Z,9.70
2022-11-04T03:09:41.429Z,9.70
2022-11-04T03:12:15.481Z,9.70
2022-11-04T03:14:52.502Z,9.60
2022-11-04T03:18:21.022Z,9.60
2022-11-04T03:20:49.918Z,9.60
2022-11-04T03:23:17.040Z,9.70
2022-11-04T03:25:46.982Z,9.60
2022-11-04T03:28:32.112Z,9.60
2022-11-04T03:31:03.281Z,9.60
2022-11-04T03:33:49.547Z,9.50
2022-11-04T03:36:17.882Z,9.50
2022-11-04T03:38:44.922Z,9.40
2022-11-04T03:41:28.014Z,9.40
2022-11-04T03:43:54.637Z,9.40
2022-11-04T03:46:22.412Z,9.30
2022-11-04T03:48:52.789Z,9.30
2022-11-04T03:51:19.481Z,9.30
2022-11-04T03:53:46.207Z,9.30
2022-11-04T03:56:21.969Z,9.30
2022-11-04T03:59:04.427Z,9.30
2022-11-04T04:01:53.960Z,9.20
2022-11-04T04:04:28.033Z,9.20
2022-11-04T04:07:02.316Z,9.20
2022-11-04T04:09:43.551Z,9.20
2022-11-04T04:12:38.396Z,9.20
2022-11-04T04:15:11.184Z,9.10
2022-11-04T04:17:43.237Z,9.10
2022-11-04T04:20:16.642Z,9.10
2022-11-04T04:22:56.118Z,9.10
2022-11-04T04:25:45.320Z,9.10
2022-11-04T04:28:15.814Z,9.00
2022-11-04T04:30:43.777Z,9.00
2022-11-04T04:33:15.789Z,8.90
2022-11-04T04:35:49.325Z,8.90
2022-11-04T04:38:44.217Z,8.90
2022-11-04T04:41:30.811Z,8.80
2022-11-04T04:44:17.082Z,8.80
2022-11-04T04:46:45.810Z,8.70
2022-11-04T04:49:12.350Z,8.70
2022-11-04T04:51:44.541Z,8.50
2022-11-04T04:54:11.346Z,8.50
2022-11-04T04:56:38.166Z,8.50
2022-11-04T04:59:04.908Z,8.40
2022-11-04T05:01:32.619Z,8.40
2022-11-04T05:03:59.284Z,8.20
2022-11-04T05:06:25.941Z,8.10
2022-11-04T05:08:53.752Z,8.00
2022-11-04T05:11:24.395Z,7.90
2022-11-04T05:13:54.056Z,7.90
2022-11-04T05:16:20.964Z,7.70
2022-11-04T05:18:47.589Z,7.70
2022-11-04T05:21:15.808Z,7.60
2022-11-04T05:23:42.441Z,7.50
2022-11-04T05:26:09.226Z,7.40
2022-11-04T05:28:35.829Z,7.40
2022-11-04T05:31:05.169Z,7.40
2022-11-04T05:33:32.348Z,7.30
2022-11-04T05:36:10.440Z,7.30
2022-11-04T05:38:37.693Z,7.30
2022-11-04T05:41:06.263Z,7.30
2022-11-04T05:43:33.704Z,7.30
2022-11-04T05:46:01.296Z,7.30
2022-11-04T05:48:28.817Z,7.30
2022-11-04T05:50:55.792Z,7.20
2022-11-04T05:53:22.510Z,7.10
2022-11-04T05:55:49.184Z,7.10
2022-11-04T05:58:15.769Z,7.00
2022-11-04T06:00:42.968Z,7.00
2022-11-04T06:03:12.114Z,7.00
2022-11-04T06:05:45.468Z,7.00
2022-11-04T06:08:12.210Z,7.00
2022-11-04T06:10:39.023Z,7.00
2022-11-04T06:13:05.565Z,7.00
2022-11-04T06:15:32.123Z,7.00
2022-11-04T06:17:58.837Z,7.00
2022-11-04T06:20:25.388Z,7.10
2022-11-04T06:22:52.380Z,7.10
2022-11-04T06:25:18.959Z,7.00
2022-11-04T06:27:47.060Z,7.00
2022-11-04T06:30:13.804Z,6.90
2022-11-04T06:32:40.396Z,6.80
2022-11-04T06:35:08.843Z,6.80
2022-11-04T06:37:35.524Z,6.80
2022-11-04T06:40:02.126Z,6.70
2022-11-04T06:42:28.664Z,6.70
2022-11-04T06:44:55.216Z,6.70
2022-11-04T06:47:24.795Z,6.70
2022-11-04T06:49:51.717Z,6.70
2022-11-04T06:52:18.281Z,6.70
2022-11-04T06:54:44.861Z,6.80
2022-11-04T06:57:12.351Z,6.80
2022-11-04T06:59:39.063Z,6.80
2022-11-04T07:02:06.060Z,6.80
2022-11-04T07:04:32.724Z,6.70
2022-11-04T07:06:59.312Z,6.80
2022-11-04T07:09:25.851Z,6.80
2022-11-04T07:11:52.404Z,6.90
2022-11-04T07:14:18.943Z,7.00
2022-11-04T07:16:49.739Z,7.00
2022-11-04T07:19:16.309Z,7.00
2022-11-04T07:21:42.887Z,7.00
2022-11-04T07:24:09.523Z,7.00
2022-11-04T07:26:36.100Z,7.10
2022-11-04T07:29:02.816Z,7.20
2022-11-04T07:31:29.454Z,7.20
2022-11-04T07:33:56.144Z,7.30
2022-11-04T07:36:22.894Z,7.30
2022-11-04T07:38:49.692Z,7.40
2022-11-04T07:41:16.885Z,7.50
2022-11-04T07:43:43.500Z,7.50
2022-11-04T07:46:12.947Z,7.70
2022-11-04T07:48:39.912Z,7.70
2022-11-04T07:51:09.182Z,7.90
2022-11-04T07:53:36.627Z,8.00
2022-11-04T07:56:08.755Z,8.10
2022-11-04T07:58:35.432Z,8.10
2022-11-04T08:01:12.098Z,8.20
2022-11-04T08:03:39.773Z,8.30
2022-11-04T08:06:11.226Z,8.40
2022-11-04T08:08:38.157Z,8.50
2022-11-04T08:11:14.251Z,8.50
2022-11-04T08:13:44.080Z,8.50
2022-11-04T08:16:14.592Z,8.60
2022-11-04T08:18:42.923Z,8.60
2022-11-04T08:21:10.364Z,8.70
2022-11-04T08:23:37.500Z,8.70
2022-11-04T08:26:12.086Z,8.70
2022-11-04T08:28:38.873Z,8.90
2022-11-04T08:31:30.435Z,8.90
2022-11-04T08:33:57.588Z,8.90
2022-11-04T08:36:31.868Z,8.90
2022-11-04T08:38:59.128Z,9.00
2022-11-04T08:41:29.472Z,9.20
2022-11-04T08:43:59.970Z,9.30
2022-11-04T08:46:35.477Z,9.50
2022-11-04T08:49:07.017Z,9.70
2022-11-04T08:51:39.108Z,9.90
2022-11-04T08:54:06.317Z,10.10
2022-11-04T08:56:36.533Z,10.20
2022-11-04T08:59:04.952Z,10.30
2022-11-04T09:01:36.088Z,10.40
2022-11-04T09:04:04.287Z,10.40
2022-11-04T09:06:37.828Z,10.50
2022-11-04T09:09:06.657Z,10.60
2022-11-04T09:11:37.969Z,10.70
2022-11-04T09:14:05.992Z,10.70
2022-11-04T09:16:35.093Z,10.70
2022-11-04T09:19:01.906Z,10.80
2022-11-04T09:21:29.080Z,10.70
2022-11-04T09:23:56.293Z,10.70
2022-11-04T09:26:25.565Z,10.70
2022-11-04T09:28:57.685Z,10.70
2022-11-04T09:31:30.534Z,10.90
2022-11-04T09:33:59.498Z,10.80
2022-11-04T09:36:26.352Z,10.90
2022-11-04T09:38:52.990Z,10.90
2022-11-04T09:41:42.453Z,10.80
2022-11-04T09:44:23.736Z,10.80
2022-11-04T09:46:53.316Z,10.70
2022-11-04T09:49:22.212Z,10.70
2022-11-04T09:51:54.949Z,10.80
2022-11-04T09:54:47.076Z,10.90
2022-11-04T09:57:18.501Z,11.10
2022-11-04T09:59:46.146Z,11.20
2022-11-04T10:02:33.383Z,11.20
2022-11-04T10:05:38.395Z,11.30
2022-11-04T10:09:02.623Z,11.20
2022-11-04T10:11:45.501Z,11.20
2022-11-04T10:14:37.009Z,11.30
2022-11-04T10:17:48.870Z,11.40
2022-11-04T10:20:56.430Z,11.50
2022-11-04T10:23:46.681Z,11.50
2022-11-04T10:26:27.786Z,11.30
2022-11-04T10:29:04.954Z,11.40
2022-11-04T10:31:31.873Z,11.40
2022-11-04T10:34:26.298Z,11.40
2022-11-04T10:36:53.313Z,11.50
2022-11-04T10:39:28.914Z,11.60
2022-11-04T10:41:58.071Z,11.90
2022-11-04T10:44:31.210Z,12.10
2022-11-04T10:47:26.326Z,12.20
2022-11-04T10:50:28.510Z,12.40
2022-11-04T10:53:15.689Z,12.40
2022-11-04T10:55:54.330Z,12.50
2022-11-04T10:58:42.065Z,12.40
2022-11-04T11:01:30.995Z,12.40
2022-11-04T11:03:58.937Z,12.30
2022-11-04T11:06:32.411Z,12.30
2022-11-04T11:09:35.566Z,12.20
2022-11-04T11:12:50.514Z,12.20
2022-11-04T11:15:49.229Z,12.30
2022-11-04T11:18:28.602Z,12.40
2022-11-04T11:21:34.295Z,12.40
2022-11-04T11:24:39.372Z,12.30
2022-11-04T11:27:31.091Z,12.30
2022-11-04T11:30:17.961Z,12.30
2022-11-04T11:33:05.151Z,12.30
2022-11-04T11:36:02.742Z,12.30
2022-11-04T11:38:53.865Z,12.30
2022-11-04T11:41:45.254Z,12.30
2022-11-04T11:44:40.103Z,12.30
2022-11-04T11:47:43.799Z,12.30
2022-11-04T11:50:33.504Z,12.30
2022-11-04T11:53:30.360Z,12.50
2022-11-04T11:57:07.272Z,12.50
2022-11-04T12:10:48.961Z,12.50
2022-11-04T12:13:43.013Z,12.50
2022-11-04T12:16:56.406Z,12.60
2022-11-04T12:20:14.265Z,12.50
2022-11-04T12:23:26.690Z,12.50
2022-11-04T12:26:40.814Z,12.60
2022-11-04T12:29:52.519Z,12.70
2022-11-04T12:32:43.659Z,12.80
2022-11-04T12:35:54.358Z,12.70
2022-11-04T12:38:53.171Z,12.80
2022-11-04T12:42:19.443Z,12.90
2022-11-04T12:45:18.380Z,12.80
2022-11-04T12:47:47.591Z,12.90
2022-11-04T12:51:11.649Z,13.00
2022-11-04T12:54:22.876Z,12.90
2022-11-04T12:57:13.448Z,12.90
2022-11-04T13:00:10.079Z,12.80
2022-11-04T13:02:52.028Z,12.70
2022-11-04T13:05:28.325Z,12.70
2022-11-04T13:08:14.527Z,12.50
2022-11-04T13:11:03.201Z,12.50
2022-11-04T13:13:36.378Z,12.60
2022-11-04T13:16:10.114Z,12.70
2022-11-04T13:18:40.503Z,12.70
2022-11-04T13:21:23.979Z,12.80
2022-11-04T13:24:06.485Z,12.90
2022-11-04T13:26:33.230Z,13.00
2022-11-04T13:29:22.263Z,13.00
2022-11-04T13:32:12.847Z,13.10
2022-11-04T13:34:59.279Z,13.20
2022-11-04T13:37:39.771Z,13.20
2022-11-04T13:40:17.155Z,13.20
2022-11-04T13:43:33.371Z,13.10
2022-11-04T13:46:00.107Z,13.10
2022-11-04T13:48:31.858Z,12.90
2022-11-04T13:51:06.786Z,12.80
2022-11-04T13:53:56.775Z,12.60
2022-11-04T13:56:40.530Z,12.50
2022-11-04T13:59:23.484Z,12.50
2022-11-04T14:02:19.489Z,12.50
2022-11-04T14:04:46.821Z,12.50
2022-11-04T14:07:18.084Z,12.50
2022-11-04T14:09:44.628Z,12.40
2022-11-04T14:12:14.115Z,12.40
2022-11-04T14:14:44.079Z,12.40
2022-11-04T14:17:32.491Z,12.30
2022-11-04T14:20:15.263Z,12.10
2022-11-04T14:23:02.802Z,12.00
2022-11-04T14:25:39.997Z,11.80
2022-11-04T14:28:09.559Z,11.80
2022-11-04T14:30:52.966Z,11.80
2022-11-04T14:33:32.139Z,11.80
2022-11-04T14:36:23.682Z,11.80
2022-11-04T14:39:10.231Z,11.70
2022-11-04T14:41:39.833Z,11.70
2022-11-04T14:44:21.255Z,11.60
2022-11-04T14:46:53.435Z,11.50
2022-11-04T14:49:34.968Z,11.50
2022-11-04T14:52:01.882Z,11.30
2022-11-04T14:54:34.365Z,11.20
2022-11-04T14:57:16.925Z,11.20
2022-11-04T14:59:44.619Z,11.00
2022-11-04T15:02:29.576Z,10.90
2022-11-04T15:05:01.978Z,10.90
2022-11-04T15:07:39.509Z,10.70
2022-11-04T15:10:27.562Z,10.60
2022-11-04T15:13:01.333Z,10.60
2022-11-04T15:15:39.650Z,10.50
2022-11-04T15:18:13.557Z,10.50
2022-11-04T15:20:50.227Z,10.40
2022-11-04T15:23:27.620Z,10.30
2022-11-04T15:25:54.765Z,10.30
2022-11-04T15:28:29.902Z,10.30
2022-11-04T15:31:10.941Z,10.30
2022-11-04T15:33:45.537Z,10.20
2022-11-04T15:36:29.901Z,10.30
2022-11-04T15:39:06.905Z,10.20
2022-11-04T15:41:56.756Z,10.20
2022-11-04T15:44:32.141Z,10.20
2022-11-04T15:47:22.837Z,10.20
2022-11-04T15:49:53.126Z,10.10
2022-11-04T15:52:26.841Z,10.10
2022-11-04T15:54:57.730Z,10.10
2022-11-04T15:57:32.073Z,10.10
2022-11-04T16:00:03.329Z,10.10
2022-11-04T16:02:51.969Z,10.10
2022-11-04T16:05:33.012Z,10.10
2022-11-04T16:08:21.206Z,10.10
2022-11-04T16:10:50.929Z,10.10
2022-11-04T16:13:20.673Z,10.10
2022-11-04T16:15:56.846Z,10.00
2022-11-04T16:18:37.470Z,9.90
2022-11-04T16:21:22.819Z,9.80
2022-11-04T16:24:01.307Z,9.70
2022-11-04T16:26:34.781Z,9.70
2022-11-04T16:29:01.932Z,9.60
2022-11-04T16:31:34.782Z,9.50
2022-11-04T16:34:01.807Z,9.40
2022-11-04T16:36:34.017Z,9.40
2022-11-04T16:39:07.986Z,9.30
2022-11-04T16:41:40.221Z,9.30
2022-11-04T16:44:23.361Z,9.20
2022-11-04T16:46:49.985Z,9.20
2022-11-04T16:49:20.201Z,9.20
2022-11-04T16:51:53.292Z,9.10
2022-11-04T16:54:19.916Z,9.10
2022-11-04T16:56:46.562Z,9.10
2022-11-04T16:59:13.179Z,9.00
2022-11-04T17:01:40.368Z,9.00
2022-11-04T17:04:07.708Z,8.90
2022-11-04T17:06:34.872Z,8.90
2022-11-04T17:09:01.677Z,8.90
2022-11-04T17:11:31.442Z,8.80
2022-11-04T17:13:58.205Z,8.80
2022-11-04T17:16:24.870Z,8.80
2022-11-04T17:18:51.508Z,8.70
2022-11-04T17:21:20.484Z,8.70
2022-11-04T17:23:47.624Z,8.60
2022-11-04T17:26:14.742Z,8.60
2022-11-04T17:28:41.934Z,8.60
2022-11-04T17:31:18.805Z,8.70
2022-11-04T17:33:46.165Z,8.60
2022-11-04T17:36:18.477Z,8.60
2022-11-04T17:38:46.776Z,8.50
2022-11-04T17:41:32.518Z,8.50
2022-11-04T17:44:07.335Z,8.60
2022-11-04T17:46:34.775Z,8.60
2022-11-04T17:49:16.291Z,8.60
2022-11-04T17:51:47.279Z,8.60
2022-11-04T17:54:14.439Z,8.60
2022-11-04T17:56:42.381Z,8.60
2022-11-04T17:59:10.714Z,8.60
2022-11-04T18:01:37.678Z,8.70
2022-11-04T18:04:04.759Z,8.70
2022-11-04T18:06:34.191Z,8.60
2022-11-04T18:09:01.984Z,8.60
2022-11-04T18:11:49.010Z,8.70
2022-11-04T18:14:17.544Z,8.70
2022-11-04T18:16:47.372Z,8.70
2022-11-04T18:19:15.384Z,8.70
2022-11-04T18:21:42.022Z,8.70
2022-11-04T18:24:08.849Z,8.70
2022-11-04T18:26:35.621Z,8.80
2022-11-04T18:29:03.138Z,8.70
2022-11-04T18:31:37.587Z,8.70
2022-11-04T18:34:08.108Z,8.70
2022-11-04T18:36:35.545Z,8.80
2022-11-04T18:39:02.197Z,8.80
2022-11-04T18:41:29.275Z,8.80
2022-11-04T18:43:56.205Z,8.80
2022-11-04T18:46:23.049Z,8.70
2022-11-04T18:48:51.049Z,8.70
2022-11-04T18:51:21.976Z,8.70
2022-11-04T18:53:49.743Z,8.70
2022-11-04T18:56:20.684Z,8.70
2022-11-04T18:58:47.704Z,8.70
2022-11-04T19:01:28.183Z,8.70
2022-11-04T19:03:55.212Z,8.70
2022-11-04T19:06:26.909Z,8.70
2022-11-04T19:09:05.076Z,8.70
2022-11-04T19:11:42.711Z,8.80
2022-11-04T19:14:16.790Z,8.80
2022-11-04T19:16:43.464Z,8.80
2022-11-04T19:19:16.453Z,8.80
2022-11-04T19:21:43.410Z,8.80
2022-11-04T19:24:11.658Z,8.90
2022-11-04T19:26:38.309Z,8.90
2022-11-04T19:29:05.849Z,9.00
2022-11-04T19:31:32.861Z,9.00
2022-11-04T19:34:04.017Z,9.00
2022-11-04T19:36:33.164Z,9.10
2022-11-04T19:39:00.571Z,9.10
2022-11-04T19:41:46.016Z,9.10
2022-11-04T19:44:18.691Z,9.10
2022-11-04T19:46:45.693Z,9.20
2022-11-04T19:49:13.172Z,9.20
2022-11-04T19:51:40.505Z,9.20
2022-11-04T19:54:07.631Z,9.20
2022-11-04T19:56:36.340Z,9.20
2022-11-04T19:59:06.557Z,9.20
2022-11-04T20:01:35.001Z,9.20
2022-11-04T20:04:03.253Z,9.20
2022-11-04T20:06:31.937Z,9.20
2022-11-04T20:09:01.563Z,9.20
2022-11-04T20:11:28.133Z,9.20
2022-11-04T20:13:54.889Z,9.20
2022-11-04T20:16:40.408Z,9.20
2022-11-04T20:19:07.193Z,9.20
2022-11-04T20:21:36.393Z,9.20
2022-11-04T20:24:06.624Z,9.20
2022-11-04T20:26:36.227Z,9.20
2022-11-04T20:29:04.053Z,9.20
2022-11-04T20:31:33.872Z,9.20
2022-11-04T20:34:04.967Z,9.20
2022-11-04T20:36:32.105Z,9.30
2022-11-04T20:39:05.083Z,9.20
2022-11-04T20:41:32.429Z,9.30
2022-11-04T20:43:59.605Z,9.30
2022-11-04T20:46:29.506Z,9.30
2022-11-04T20:48:57.753Z,9.30
2022-11-04T20:51:28.575Z,9.30
2022-11-04T20:54:00.011Z,9.30
2022-11-04T20:56:33.058Z,9.30
2022-11-04T20:59:00.622Z,9.30
2022-11-04T21:01:34.150Z,9.30
2022-11-04T21:04:03.289Z,9.30
2022-11-04T21:06:30.591Z,9.20
2022-11-04T21:08:59.008Z,9.20
2022-11-04T21:11:31.755Z,9.20
2022-11-04T21:13:59.506Z,9.20
2022-11-04T21:16:26.821Z,9.10
2022-11-04T21:18:54.378Z,9.20
2022-11-04T21:21:21.073Z,9.10
2022-11-04T21:23:47.896Z,9.10
2022-11-04T21:26:23.213Z,9.10
2022-11-04T21:29:03.015Z,9.10
2022-11-04T21:31:32.890Z,9.10
2022-11-04T21:33:59.970Z,9.10
2022-11-04T21:36:26.938Z,9.10
2022-11-04T21:38:53.673Z,9.10
2022-11-04T21:41:25.044Z,9.10
2022-11-04T21:44:03.498Z,9.10
2022-11-04T21:46:32.773Z,9.10
2022-11-04T21:49:00.730Z,9.10
2022-11-04T21:51:31.151Z,9.10
2022-11-04T21:53:59.272Z,9.10
2022-11-04T21:56:29.543Z,9.10
2022-11-04T21:59:03.967Z,9.10
2022-11-04T22:01:31.931Z,9.00
2022-11-04T22:04:01.161Z,9.10
2022-11-04T22:06:34.256Z,9.00
2022-11-04T22:09:04.155Z,9.00
2022-11-04T22:11:32.782Z,9.00
2022-11-04T22:14:02.364Z,9.00
2022-11-04T22:16:34.515Z,9.10
2022-11-04T22:19:05.621Z,9.00
2022-11-04T22:21:32.898Z,9.00
2022-11-04T22:24:00.735Z,9.00
2022-11-04T22:26:30.828Z,9.00
2022-11-04T22:28:58.588Z,9.00
2022-11-04T22:31:26.277Z,9.00
2022-11-04T22:33:53.526Z,9.00
2022-11-04T22:36:20.823Z,9.00
2022-11-04T22:38:47.567Z,9.00
2022-11-04T22:41:18.258Z,9.00
2022-11-04T22:43:44.890Z,9.00
2022-11-04T22:46:16.773Z,9.00
2022-11-04T22:48:43.395Z,9.00
2022-11-04T22:51:10.601Z,9.00
2022-11-04T22:53:38.443Z,9.00
2022-11-04T22:56:07.860Z,9.00
2022-11-04T22:58:35.136Z,9.00
2022-11-04T23:01:06.468Z,9.00
2022-11-04T23:03:35.754Z,9.00
2022-11-04T23:06:05.190Z,9.00
2022-11-04T23:08:33.994Z,9.00
2022-11-04T23:11:41.297Z,8.90
2022-11-04T23:14:33.753Z,9.00
2022-11-04T23:17:19.086Z,9.00
2022-11-04T23:19:46.064Z,9.00
2022-11-04T23:22:32.162Z,9.00
2022-11-04T23:25:10.890Z,9.00
2022-11-04T23:28:05.651Z,9.00
2022-11-04T23:30:46.861Z,9.00
2022-11-04T23:33:15.342Z,9.00
2022-11-04T23:36:06.916Z,9.00
2022-11-04T23:38:35.207Z,8.90
2022-11-04T23:41:24.818Z,8.90
2022-11-04T23:43:51.551Z,8.90
2022-11-04T23:46:42.572Z,8.90
2022-11-04T23:49:31.656Z,8.90
2022-11-04T23:52:16.903Z,8.90
2022-11-04T23:55:02.321Z,8.90
2022-11-04T23:57:47.616Z,8.90
